Terminal Aerodrome Forecast
Issued by NWS Jackson, KY

Home | Current Version | Previous Version | Text Only | Print | Product List | Glossary On
Versions: 1 2 3 4 5 6 7 8 9 10 11 12 13 14 15 16 17
322
FTUS43 KJKL 040941 AAB
TAFJKL
TAF AMD
KJKL 040941Z 0410/0506 VRB03KT P6SM OVC035
     FM041500 31005KT P6SM SCT035=

USA.gov is the U.S. government's official web portal to all federal, state and local government web resources and services.